createdAt,value
2017-11-14T00:01:33.204Z,6.20
2017-11-14T00:04:01.103Z,7.20
2017-11-14T00:06:29.384Z,5.33
2017-11-14T00:08:57.480Z,5.37
2017-11-14T00:11:26.345Z,7.80
2017-11-14T00:13:54.233Z,16.00
2017-11-14T00:16:21.752Z,10.10
2017-11-14T00:18:50.149Z,7.27
2017-11-14T00:21:17.813Z,7.63
2017-11-14T00:23:46.067Z,7.60
2017-11-14T00:26:13.740Z,6.50
2017-11-14T00:28:41.396Z,6.43
2017-11-14T00:31:08.892Z,6.87
2017-11-14T00:33:36.513Z,9.77
2017-11-14T00:36:04.016Z,9.67
2017-11-14T00:38:31.523Z,7.80
2017-11-14T00:40:59.020Z,8.03
2017-11-14T00:43:26.543Z,11.27
2017-11-14T00:45:54.429Z,6.00
2017-11-14T00:48:21.936Z,7.50
2017-11-14T00:50:50.195Z,6.93
2017-11-14T00:53:18.480Z,8.13
2017-11-14T00:55:46.765Z,10.17
2017-11-14T00:58:15.143Z,7.13
2017-11-14T01:00:42.635Z,8.50
2017-11-14T01:03:10.256Z,6.50
2017-11-14T01:05:37.756Z,9.97
2017-11-14T01:08:05.276Z,10.10
2017-11-14T01:10:32.782Z,17.13
2017-11-14T01:13:01.048Z,10.83
2017-11-14T01:15:30.068Z,10.20
2017-11-14T01:17:58.336Z,10.10
2017-11-14T01:20:26.243Z,9.20
2017-11-14T01:22:53.737Z,8.30
2017-11-14T01:25:21.639Z,9.93
2017-11-14T01:27:49.903Z,9.90
2017-11-14T01:30:17.415Z,7.93
2017-11-14T01:32:45.017Z,9.70
2017-11-14T01:35:12.535Z,13.20
2017-11-14T01:37:40.802Z,9.60
2017-11-14T01:40:08.424Z,9.60
2017-11-14T01:42:36.073Z,8.40
2017-11-14T01:45:03.624Z,8.80
2017-11-14T01:47:31.124Z,10.90
2017-11-14T01:49:59.864Z,5.87
2017-11-14T01:52:27.523Z,6.87
2017-11-14T01:54:55.424Z,7.50
2017-11-14T01:57:22.916Z,9.43
2017-11-14T01:59:52.137Z,6.83
2017-11-14T02:02:19.632Z,9.13
2017-11-14T02:04:47.916Z,6.63
2017-11-14T02:07:15.407Z,7.00
2017-11-14T02:09:44.450Z,6.13
2017-11-14T02:12:13.084Z,7.57
2017-11-14T02:14:40.756Z,7.43
2017-11-14T02:17:08.268Z,9.57
2017-11-14T02:19:37.096Z,6.77
2017-11-14T02:22:04.611Z,10.63
2017-11-14T02:24:33.479Z,8.90
2017-11-14T02:27:00.992Z,10.10
2017-11-14T02:29:29.848Z,8.43
2017-11-14T02:31:57.376Z,7.70
2017-11-14T02:34:25.637Z,13.23
2017-11-14T02:36:53.196Z,10.43
2017-11-14T02:39:20.703Z,9.10
2017-11-14T02:41:48.972Z,7.80
2017-11-14T02:44:17.323Z,8.83
2017-11-14T02:46:44.820Z,7.73
2017-11-14T02:49:12.336Z,8.20
2017-11-14T02:51:40.344Z,5.83
2017-11-14T02:54:07.864Z,4.97
2017-11-14T02:56:35.356Z,7.50
2017-11-14T02:59:04.265Z,7.97
2017-11-14T03:01:31.756Z,6.50
2017-11-14T03:03:59.515Z,7.30
2017-11-14T03:06:27.941Z,6.70
2017-11-14T03:08:55.592Z,6.70
2017-11-14T03:11:23.875Z,8.13
2017-11-14T03:13:51.368Z,6.73
2017-11-14T03:16:18.897Z,10.27
2017-11-14T03:18:46.388Z,4.90
2017-11-14T03:21:15.404Z,5.47
2017-11-14T03:23:44.256Z,5.40
2017-11-14T03:26:11.771Z,7.20
2017-11-14T03:28:40.408Z,6.57
2017-11-14T03:31:07.903Z,6.30
2017-11-14T03:33:36.564Z,6.20
2017-11-14T03:36:05.373Z,6.53
2017-11-14T03:38:32.883Z,6.77
2017-11-14T03:41:00.381Z,6.90
2017-11-14T03:43:27.934Z,8.00
2017-11-14T03:45:55.437Z,12.37
2017-11-14T03:48:23.692Z,8.77
2017-11-14T03:50:51.316Z,6.50
2017-11-14T03:53:18.809Z,5.80
2017-11-14T03:55:46.384Z,6.43
2017-11-14T03:58:15.384Z,6.60
2017-11-14T04:00:43.677Z,6.83
2017-11-14T04:03:11.944Z,7.20
2017-11-14T04:05:40.343Z,8.17
2017-11-14T04:08:08.005Z,7.90
2017-11-14T04:10:35.532Z,7.40
2017-11-14T04:13:03.420Z,6.90
2017-11-14T04:15:30.932Z,6.30
2017-11-14T04:17:58.420Z,8.30
2017-11-14T04:20:25.953Z,6.20
2017-11-14T04:22:54.220Z,6.63
2017-11-14T04:25:21.736Z,5.20
2017-11-14T04:27:49.245Z,10.77
2017-11-14T04:30:16.938Z,5.20
2017-11-14T04:32:45.201Z,5.23
2017-11-14T04:35:12.715Z,6.10
2017-11-14T04:37:40.599Z,6.13
2017-11-14T04:40:09.249Z,6.33
2017-11-14T04:42:37.148Z,7.37
2017-11-14T04:45:05.428Z,6.80
2017-11-14T04:47:33.816Z,6.30
2017-11-14T04:50:01.737Z,6.57
2017-11-14T04:52:29.337Z,6.53
2017-11-14T04:54:56.847Z,5.83
2017-11-14T04:57:24.340Z,8.87
2017-11-14T04:59:52.988Z,7.90
2017-11-14T05:02:20.479Z,7.57
2017-11-14T05:04:47.990Z,6.53
2017-11-14T05:07:15.486Z,6.90
2017-11-14T05:09:43.005Z,15.63
2017-11-14T05:12:11.956Z,7.13
2017-11-14T05:14:39.483Z,8.80
2017-11-14T05:17:07.381Z,6.13
2017-11-14T05:19:34.980Z,9.13
2017-11-14T05:22:03.706Z,10.60
2017-11-14T05:24:31.985Z,7.90
2017-11-14T05:26:59.884Z,6.40
2017-11-14T05:29:28.904Z,7.10
2017-11-14T05:31:56.800Z,10.03
2017-11-14T05:34:25.100Z,6.77
2017-11-14T05:36:52.596Z,8.03
2017-11-14T05:39:20.851Z,6.70
2017-11-14T05:41:48.869Z,7.57
2017-11-14T05:44:16.381Z,9.10
2017-11-14T05:46:45.040Z,6.60
2017-11-14T05:49:12.532Z,5.23
2017-11-14T05:51:41.180Z,6.70
2017-11-14T05:54:09.488Z,5.67
2017-11-14T05:56:37.398Z,7.70
2017-11-14T05:59:05.285Z,7.00
2017-11-14T06:01:32.811Z,6.17
2017-11-14T06:04:00.295Z,5.80
2017-11-14T06:06:28.561Z,7.30
2017-11-14T06:08:56.176Z,9.30
2017-11-14T06:11:23.832Z,7.90
2017-11-14T06:13:51.346Z,6.60
2017-11-14T06:16:18.836Z,9.10
2017-11-14T06:18:46.748Z,8.30
2017-11-14T06:21:14.243Z,8.00
2017-11-14T06:23:41.801Z,7.10
2017-11-14T06:26:10.410Z,6.40
2017-11-14T06:28:37.904Z,7.60
2017-11-14T06:31:06.561Z,7.03
2017-11-14T06:33:35.416Z,10.27
2017-11-14T06:36:03.332Z,7.27
2017-11-14T06:38:32.287Z,6.80
2017-11-14T06:41:01.151Z,7.30
2017-11-14T06:43:29.896Z,7.70
2017-11-14T06:45:57.409Z,8.03
2017-11-14T06:48:24.912Z,9.50
2017-11-14T06:50:52.439Z,7.30
2017-11-14T06:53:21.436Z,6.80
2017-11-14T06:55:48.948Z,6.43
2017-11-14T06:58:16.439Z,7.23
2017-11-14T07:00:44.056Z,9.27
2017-11-14T07:03:12.371Z,11.13
2017-11-14T07:05:39.867Z,16.43
2017-11-14T07:08:07.385Z,9.93
2017-11-14T07:10:35.473Z,10.50
2017-11-14T07:13:03.187Z,11.20
2017-11-14T07:15:30.694Z,9.70
2017-11-14T07:17:58.937Z,8.07
2017-11-14T07:20:27.198Z,7.80
2017-11-14T07:22:54.697Z,22.57
2017-11-14T07:25:22.613Z,26.50
2017-11-14T07:27:50.115Z,17.53
2017-11-14T07:30:17.637Z,16.53
2017-11-14T07:32:45.128Z,21.90
2017-11-14T07:35:12.648Z,28.87
2017-11-14T07:37:40.156Z,14.63
2017-11-14T07:40:08.437Z,13.20
2017-11-14T07:42:36.705Z,12.90
2017-11-14T07:45:04.987Z,10.07
2017-11-14T07:47:33.266Z,8.40
2017-11-14T07:50:00.784Z,11.53
2017-11-14T07:52:28.277Z,5.90
2017-11-14T07:54:55.945Z,7.03
2017-11-14T07:57:23.444Z,9.93
2017-11-14T07:59:50.965Z,8.87
2017-11-14T08:02:18.456Z,14.60
2017-11-14T08:04:46.372Z,10.63
2017-11-14T08:07:13.872Z,11.60
2017-11-14T08:09:41.493Z,7.93
2017-11-14T08:12:09.403Z,12.87
2017-11-14T08:14:37.827Z,27.47
2017-11-14T08:17:05.349Z,20.33
2017-11-14T08:19:33.984Z,13.77
2017-11-14T08:22:01.505Z,11.80
2017-11-14T08:24:30.136Z,8.90
2017-11-14T08:26:57.760Z,13.00
2017-11-14T08:29:26.396Z,8.30
2017-11-14T08:31:53.948Z,10.07
2017-11-14T08:34:22.576Z,9.70
2017-11-14T08:36:50.092Z,12.03
2017-11-14T08:39:17.594Z,10.17
2017-11-14T08:41:45.964Z,13.43
2017-11-14T08:44:13.460Z,13.30
2017-11-14T08:46:40.993Z,8.50
2017-11-14T08:49:08.488Z,18.33
2017-11-14T08:51:36.005Z,12.07
2017-11-14T08:54:03.909Z,14.20
2017-11-14T08:56:31.868Z,15.40
2017-11-14T08:58:59.757Z,14.90
2017-11-14T09:01:27.277Z,11.77
2017-11-14T09:03:55.313Z,10.97
2017-11-14T09:06:22.832Z,21.63
2017-11-14T09:08:51.233Z,16.07
2017-11-14T09:11:18.752Z,13.90
2017-11-14T09:13:47.172Z,22.03
2017-11-14T09:16:15.456Z,11.87
2017-11-14T09:18:42.960Z,10.63
2017-11-14T09:21:11.243Z,12.87
2017-11-14T09:23:39.132Z,12.40
2017-11-14T09:26:06.664Z,13.10
2017-11-14T09:28:34.160Z,10.50
2017-11-14T09:31:01.672Z,5.50
2017-11-14T09:33:30.296Z,9.43
2017-11-14T09:35:57.809Z,5.73
2017-11-14T09:38:26.607Z,7.90
2017-11-14T09:40:54.121Z,6.23
2017-11-14T09:43:22.953Z,6.60
2017-11-14T09:45:51.429Z,6.87
2017-11-14T09:48:18.920Z,7.80
2017-11-14T09:50:46.449Z,5.87
2017-11-14T09:53:15.452Z,4.33
2017-11-14T09:55:43.915Z,5.93
2017-11-14T09:58:11.981Z,5.93
2017-11-14T10:00:39.640Z,7.00
2017-11-14T10:03:07.895Z,8.23
2017-11-14T10:05:35.407Z,6.27
2017-11-14T10:08:02.915Z,5.83
2017-11-14T10:10:30.477Z,6.00
2017-11-14T10:12:57.996Z,5.83
2017-11-14T10:15:25.492Z,5.63
2017-11-14T10:17:53.004Z,6.43
2017-11-14T10:20:20.904Z,4.10
2017-11-14T10:22:48.420Z,7.30
2017-11-14T10:25:15.911Z,7.07
2017-11-14T10:27:43.476Z,3.37
2017-11-14T10:30:11.736Z,3.50
2017-11-14T10:32:40.205Z,3.70
2017-11-14T10:35:07.701Z,6.53
2017-11-14T10:37:35.332Z,4.73
2017-11-14T10:40:02.847Z,4.93
2017-11-14T10:42:30.462Z,5.60
2017-11-14T10:44:57.957Z,5.70
2017-11-14T10:47:25.537Z,6.80
2017-11-14T10:49:53.071Z,4.70
2017-11-14T10:52:20.592Z,5.90
2017-11-14T10:54:48.088Z,7.47
2017-11-14T10:57:15.596Z,4.77
2017-11-14T10:59:44.292Z,5.77
2017-11-14T11:02:11.848Z,5.37
2017-11-14T11:04:39.744Z,4.73
2017-11-14T11:07:08.776Z,4.87
2017-11-14T11:09:37.048Z,4.33
2017-11-14T11:12:04.557Z,6.80
2017-11-14T11:14:32.053Z,11.20
2017-11-14T11:16:59.594Z,14.60
2017-11-14T11:19:28.459Z,10.80
2017-11-14T11:21:55.972Z,6.47
2017-11-14T11:24:23.469Z,14.97
2017-11-14T11:26:50.993Z,5.63
2017-11-14T11:29:19.253Z,9.47
2017-11-14T11:31:46.782Z,5.20
2017-11-14T11:34:14.348Z,4.97
2017-11-14T11:36:42.009Z,5.13
2017-11-14T11:39:10.342Z,4.93
2017-11-14T11:41:37.856Z,4.70
2017-11-14T11:44:05.354Z,5.63
2017-11-14T11:46:32.873Z,5.57
2017-11-14T11:49:00.365Z,4.03
2017-11-14T11:51:27.881Z,4.40
2017-11-14T11:53:56.163Z,12.40
2017-11-14T11:56:25.113Z,13.93
2017-11-14T11:58:53.372Z,9.43
2017-11-14T12:01:21.066Z,9.10
2017-11-14T12:03:48.723Z,12.20
2017-11-14T12:06:16.229Z,11.80
2017-11-14T12:08:43.744Z,14.70
2017-11-14T12:11:12.085Z,12.27
2017-11-14T12:13:39.609Z,13.00
2017-11-14T12:16:07.124Z,15.63
2017-11-14T12:18:36.007Z,14.43
2017-11-14T12:21:03.508Z,15.20
2017-11-14T12:23:32.513Z,21.13
2017-11-14T12:26:00.893Z,15.53
2017-11-14T12:28:28.396Z,19.50
2017-11-14T12:30:55.916Z,15.63
2017-11-14T12:33:24.588Z,16.30
2017-11-14T12:35:52.864Z,12.87
2017-11-14T12:38:20.866Z,19.40
2017-11-14T12:40:48.408Z,17.27
2017-11-14T12:43:15.912Z,13.93
2017-11-14T12:45:43.420Z,23.63
2017-11-14T12:48:11.484Z,19.63
2017-11-14T12:50:39.020Z,17.57
2017-11-14T12:53:07.301Z,17.37
2017-11-14T12:55:34.815Z,11.80
2017-11-14T12:58:02.528Z,14.13
2017-11-14T13:00:30.040Z,17.43
2017-11-14T13:02:57.630Z,15.17
2017-11-14T13:05:25.259Z,15.07
2017-11-14T13:07:53.192Z,17.13
2017-11-14T13:10:20.820Z,8.63
2017-11-14T13:12:48.344Z,17.53
2017-11-14T13:15:16.633Z,9.40
2017-11-14T13:17:44.888Z,9.77
2017-11-14T13:20:12.442Z,10.60
2017-11-14T13:22:41.255Z,10.10
2017-11-14T13:25:09.642Z,7.97
2017-11-14T13:27:38.832Z,25.17
2017-11-14T13:30:06.745Z,7.50
2017-11-14T13:32:34.240Z,26.67
2017-11-14T13:35:01.732Z,10.87
2017-11-14T13:37:29.248Z,8.60
2017-11-14T13:39:57.639Z,12.30
2017-11-14T13:42:25.305Z,13.50
2017-11-14T13:44:52.801Z,13.27
2017-11-14T13:47:21.080Z,9.60
2017-11-14T13:49:48.577Z,21.30
2017-11-14T13:52:17.499Z,13.40
2017-11-14T13:54:45.484Z,15.00
2017-11-14T13:57:13.764Z,15.20
2017-11-14T13:59:41.262Z,13.53
2017-11-14T14:02:09.912Z,15.70
2017-11-14T14:04:37.927Z,17.77
2017-11-14T14:07:06.217Z,14.83
2017-11-14T14:09:33.733Z,27.20
2017-11-14T14:12:02.941Z,16.67
2017-11-14T14:14:30.444Z,26.10
2017-11-14T14:16:58.728Z,17.43
2017-11-14T14:19:27.016Z,22.37
2017-11-14T14:21:54.928Z,17.10
2017-11-14T14:24:22.447Z,19.53
2017-11-14T14:26:49.983Z,16.87
2017-11-14T14:29:17.484Z,20.93
2017-11-14T14:31:45.005Z,22.20
2017-11-14T14:34:12.699Z,16.43
2017-11-14T14:36:40.320Z,19.90
2017-11-14T14:39:08.412Z,18.23
2017-11-14T14:41:35.948Z,16.43
2017-11-14T14:44:04.216Z,17.90
2017-11-14T14:46:33.086Z,18.83
2017-11-14T14:49:01.444Z,24.03
2017-11-14T14:51:28.967Z,23.67
2017-11-14T14:53:57.030Z,15.50
2017-11-14T14:56:24.547Z,22.67
2017-11-14T14:58:52.138Z,18.80
2017-11-14T15:01:19.689Z,20.03
2017-11-14T15:03:47.628Z,18.40
2017-11-14T15:06:15.127Z,20.77
2017-11-14T15:08:44.156Z,20.07
2017-11-14T15:11:13.311Z,24.70
2017-11-14T15:13:40.960Z,18.00
2017-11-14T15:16:08.460Z,20.83
2017-11-14T15:18:35.992Z,18.80
2017-11-14T15:21:03.497Z,19.67
2017-11-14T15:23:31.185Z,19.20
2017-11-14T15:25:59.078Z,20.37
2017-11-14T15:28:26.708Z,19.90
2017-11-14T15:30:54.977Z,19.07
2017-11-14T15:33:22.497Z,19.20
2017-11-14T15:35:50.001Z,21.87
2017-11-14T15:38:17.572Z,20.37
2017-11-14T15:40:45.204Z,22.83
2017-11-14T15:43:12.734Z,24.73
2017-11-14T15:45:41.004Z,24.00
2017-11-14T15:48:09.283Z,22.53
2017-11-14T15:50:37.556Z,23.93
2017-11-14T15:53:05.849Z,28.60
2017-11-14T15:55:33.740Z,29.27
2017-11-14T15:58:01.712Z,29.23
2017-11-14T16:00:29.220Z,26.83
2017-11-14T16:02:57.136Z,43.97
2017-11-14T16:05:24.636Z,29.20
2017-11-14T16:07:52.160Z,21.47
2017-11-14T16:10:20.054Z,26.20
2017-11-14T16:12:48.375Z,25.87
2017-11-14T16:15:15.903Z,33.37
2017-11-14T16:17:43.416Z,29.80
2017-11-14T16:20:11.435Z,29.13
2017-11-14T16:22:39.348Z,37.33
2017-11-14T16:25:06.887Z,30.87
2017-11-14T16:27:34.821Z,26.10
2017-11-14T16:30:02.753Z,27.23
2017-11-14T16:32:31.016Z,34.07
2017-11-14T16:34:59.312Z,35.90
2017-11-14T16:37:26.820Z,136.93
2017-11-14T16:39:55.756Z,39.07
2017-11-14T16:42:23.313Z,67.97
2017-11-14T16:44:51.289Z,27.63
2017-11-14T16:47:18.813Z,30.60
2017-11-14T16:49:47.780Z,52.93
2017-11-14T16:52:15.495Z,60.07
2017-11-14T16:54:43.005Z,38.93
2017-11-14T16:57:10.580Z,95.60
2017-11-14T16:59:39.012Z,56.13
2017-11-14T17:02:06.514Z,33.60
2017-11-14T17:04:34.196Z,33.30
2017-11-14T17:07:01.713Z,38.90
2017-11-14T17:09:30.608Z,37.67
2017-11-14T17:11:58.116Z,106.37
2017-11-14T17:14:27.183Z,38.63
2017-11-14T17:16:54.688Z,30.07
2017-11-14T17:19:23.559Z,62.73
2017-11-14T17:21:51.093Z,43.53
2017-11-14T17:24:18.591Z,30.90
2017-11-14T17:26:46.127Z,34.07
2017-11-14T17:29:14.016Z,31.73
2017-11-14T17:31:41.512Z,29.33
2017-11-14T17:34:09.029Z,39.70
2017-11-14T17:36:36.589Z,35.20
2017-11-14T17:39:05.249Z,36.10
2017-11-14T17:41:32.744Z,32.77
2017-11-14T17:44:00.424Z,45.27
2017-11-14T17:46:29.072Z,32.87
2017-11-14T17:48:56.623Z,26.53
2017-11-14T17:51:24.130Z,34.17
2017-11-14T17:53:52.096Z,31.97
2017-11-14T17:56:19.596Z,40.77
2017-11-14T17:58:48.420Z,35.27
2017-11-14T18:01:15.927Z,43.37
2017-11-14T18:03:43.463Z,37.57
2017-11-14T18:06:10.997Z,39.20
2017-11-14T18:08:38.534Z,40.10
2017-11-14T18:11:06.444Z,36.83
2017-11-14T18:13:33.967Z,39.10
2017-11-14T18:16:01.480Z,43.83
2017-11-14T18:18:30.516Z,42.20
2017-11-14T18:20:59.200Z,48.90
2017-11-14T18:23:26.835Z,38.50
2017-11-14T18:25:54.332Z,30.27
2017-11-14T18:28:21.833Z,31.60
2017-11-14T18:30:50.644Z,35.40
2017-11-14T18:33:18.157Z,37.00
2017-11-14T18:35:45.766Z,40.20
2017-11-14T18:38:13.282Z,36.07
2017-11-14T18:40:41.593Z,33.97
2017-11-14T18:43:09.092Z,39.13
2017-11-14T18:45:36.597Z,33.87
2017-11-14T18:48:04.264Z,33.07
2017-11-14T18:50:32.920Z,33.97
2017-11-14T18:53:00.480Z,32.97
2017-11-14T18:55:28.036Z,47.37
2017-11-14T18:57:55.984Z,34.40
2017-11-14T19:00:23.484Z,36.67
2017-11-14T19:02:50.987Z,42.90
2017-11-14T19:05:18.504Z,30.97
2017-11-14T19:07:46.413Z,38.53
2017-11-14T19:10:13.933Z,33.30
2017-11-14T19:12:41.460Z,38.57
2017-11-14T19:15:09.009Z,37.77
2017-11-14T19:17:36.582Z,40.13
2017-11-14T19:20:05.930Z,40.00
2017-11-14T19:22:34.874Z,40.13
2017-11-14T19:25:02.415Z,34.70
2017-11-14T19:27:31.805Z,28.67
2017-11-14T19:30:00.481Z,42.80
2017-11-14T19:32:29.384Z,40.07
2017-11-14T19:34:56.924Z,38.13
2017-11-14T19:37:25.800Z,33.20
2017-11-14T19:39:53.305Z,41.47
2017-11-14T19:42:20.836Z,37.13
2017-11-14T19:44:48.739Z,34.53
2017-11-14T19:47:17.805Z,34.93
2017-11-14T19:49:46.664Z,38.70
2017-11-14T19:52:15.377Z,31.50
2017-11-14T19:54:44.252Z,33.17
2017-11-14T19:57:11.844Z,36.57
2017-11-14T19:59:39.459Z,42.50
2017-11-14T20:02:08.459Z,39.53
2017-11-14T20:04:35.993Z,35.47
2017-11-14T20:07:04.900Z,42.33
2017-11-14T20:09:33.182Z,32.13
2017-11-14T20:12:00.683Z,38.47
2017-11-14T20:14:28.204Z,38.87
2017-11-14T20:16:57.215Z,39.20
2017-11-14T20:19:25.705Z,41.67
2017-11-14T20:21:53.972Z,51.07
2017-11-14T20:24:21.507Z,40.53
2017-11-14T20:26:49.409Z,47.40
2017-11-14T20:29:16.922Z,42.43
2017-11-14T20:31:45.232Z,37.03
2017-11-14T20:34:13.868Z,41.13
2017-11-14T20:36:41.819Z,37.07
2017-11-14T20:39:09.324Z,44.93
2017-11-14T20:41:36.880Z,44.47
2017-11-14T20:44:05.304Z,42.43
2017-11-14T20:46:32.964Z,36.07
2017-11-14T20:49:00.472Z,35.43
2017-11-14T20:51:28.780Z,36.00
2017-11-14T20:53:57.050Z,42.03
2017-11-14T20:56:25.320Z,37.27
2017-11-14T20:58:53.989Z,34.90
2017-11-14T21:01:22.416Z,36.80
2017-11-14T21:04:02.200Z,43.37
2017-11-14T21:06:30.103Z,33.87
2017-11-14T21:08:57.648Z,38.10
2017-11-14T21:11:25.939Z,35.57
2017-11-14T21:13:54.976Z,33.47
2017-11-14T21:16:22.499Z,35.60
2017-11-14T21:18:50.016Z,27.37
2017-11-14T21:21:19.027Z,28.83
2017-11-14T21:23:47.341Z,33.87
2017-11-14T21:26:15.241Z,30.90
2017-11-14T21:28:42.779Z,32.70
2017-11-14T21:31:10.290Z,32.93
2017-11-14T21:33:37.816Z,29.93
2017-11-14T21:36:05.330Z,32.10
2017-11-14T21:38:32.853Z,28.23
2017-11-14T21:41:00.377Z,33.87
2017-11-14T21:43:27.907Z,36.47
2017-11-14T21:45:55.407Z,25.77
2017-11-14T21:48:23.684Z,39.30
2017-11-14T21:50:51.980Z,33.63
2017-11-14T21:53:20.612Z,29.97
2017-11-14T21:55:48.140Z,33.43
2017-11-14T21:58:15.655Z,25.63
2017-11-14T22:00:43.177Z,33.10
2017-11-14T22:03:11.084Z,31.00
2017-11-14T22:05:38.612Z,32.13
2017-11-14T22:08:06.164Z,31.97
2017-11-14T22:10:33.688Z,29.03
2017-11-14T22:13:01.189Z,31.93
2017-11-14T22:15:29.458Z,26.90
2017-11-14T22:17:56.996Z,25.20
2017-11-14T22:20:24.896Z,27.10
2017-11-14T22:22:52.424Z,39.43
2017-11-14T22:25:21.283Z,30.70
2017-11-14T22:27:48.812Z,30.63
2017-11-14T22:30:16.824Z,29.70
2017-11-14T22:32:44.363Z,30.83
2017-11-14T22:35:13.008Z,29.93
2017-11-14T22:37:40.904Z,31.83
2017-11-14T22:40:09.200Z,33.17
2017-11-14T22:42:37.112Z,28.40
2017-11-14T22:45:11.924Z,22.93
2017-11-14T22:47:39.824Z,27.17
2017-11-14T22:50:07.747Z,37.43
2017-11-14T22:52:35.648Z,37.87
2017-11-14T22:55:03.177Z,36.43
2017-11-14T22:57:31.829Z,34.27
2017-11-14T22:59:59.373Z,31.30
2017-11-14T23:02:27.267Z,38.20
2017-11-14T23:04:54.781Z,33.77
2017-11-14T23:07:23.073Z,31.87
2017-11-14T23:09:50.583Z,31.77
2017-11-14T23:12:18.107Z,40.97
2017-11-14T23:14:46.380Z,32.70
2017-11-14T23:17:14.297Z,33.00
2017-11-14T23:19:41.798Z,42.17
2017-11-14T23:22:10.085Z,31.03
2017-11-14T23:24:37.588Z,49.77
2017-11-14T23:27:05.114Z,32.73
2017-11-14T23:29:32.620Z,33.13
2017-11-14T23:32:01.312Z,35.10
2017-11-14T23:34:29.228Z,34.57
2017-11-14T23:36:56.745Z,37.27
2017-11-14T23:39:25.687Z,32.20
2017-11-14T23:41:53.190Z,33.10
2017-11-14T23:44:21.129Z,31.90
2017-11-14T23:46:48.637Z,34.83
2017-11-14T23:49:16.160Z,28.67
2017-11-14T23:51:44.432Z,33.67
2017-11-14T23:54:12.712Z,28.87
2017-11-14T23:56:40.982Z,25.77
2017-11-14T23:59:10.021Z,27.50
